Latest Observation

114 Stations

10 Minute Data
as of 9/2/26 6:34 PM PDT
Station Date Time Temp (°F) RH (%) Dew Pt (°F) Wind Spd (mph) Wind Dir (°) Wind Gust (mph) Wind Gst Dir (°) Latest Rain (In) Soil Moist (%) Soil Temp (°F) Daily Rain (In) Daily Min Temp (°F) Daily Max Temp (°F) Daily Max Wind (mph)
Hobart Mills 9/2/26 1830 54.1   2.3 50   15 36.1   6.4 2.1   1.5 SSW | 203 9.3   4.2 SSW | 213 0.00 7.5   0.1 65.0   2.7 0.00 44.6   2.1 61.9   4.7 21.4   4.5
Prosser Dam 9/2/26 1830 56.0   3.6 49   17 37.0   7.7 8.4   3.6 SW | 231 16.8   5.1 SW | 235 0.00 5.3   0.0 61.7   1.9 0.00 41.5   3.9 61.8   7.2 29.6   1.6
West Incline Village 9/2/26 1830 50.0   2.9 56   11 34.9   2.6 7.1   2.5 S | 185 19.6   6.8 S | 187 0.00 11.7   0.1 57.6   0.8 0.00 40.4   8.1 54.0   7.3 26.8   5.6
Incline Village (Fairview Blvd) 9/2/26 1830 52.0   2.9 57   13 37.2   3.8 2.9   0.7 SW | 234 11.9   0.1 SW | 228 0.00 7.6   0.1 70.7   1.1 0.00 42.9   8.1 57.6   6.4 21.2   3.5
Incline Village (Diamond Peak) 9/2/26 1830 49.5   2.9 60   10 36.0   1.8 6.9   4.6 NW | 316 10.2   4.6 NW | 318 0.00 2.5   0.0 58.9   1.8 0.00 40.2   9.3 53.7   6.8 15.5   2.4
Incline Village (Mill Creek) 5/30/36 1610 74.5 37 46.5 0.5 SW | 236 1.7 SSW | 213 0.00 0.0 0.0 0.00 74.4 74.5 1.7
Incline Village (Lakeshore Blvd) 9/2/26 1830 55.3   2.3 63   10 42.9   2.4 7.3   1.7 SW | 228 15.5   5.6 SSW | 205 0.00 21.7   1.9 61.8   1.7 0.00 47.5   0.9 57.2   6.5 18.5   2.9
Glenbrook 9/2/26 1830 56.5   2.2 55   18 40.6   8.0 11.9   3.0 WSW | 256 17.6   3.5 WSW | 257 0.00 43.1   0.1 58.7   0.7 0.00 48.7   2.8 59.1   5.7 26.2   4.7
Zephyr Cove 9/2/26 1830 55.6   2.6 51   18 37.6   8.6 0.4   0.8 N | 2 2.5   4.7 NNW | 327 0.00 2.9   0.0 70.1   1.6 0.00 45.2   6.3 61.3   7.2 14.7   2.0
Kingsbury Grade 9/2/26 1830 54.2   2.6 46   12 34.1   4.9 2.5   0.3 WSW | 245 8.1   2.9 W | 261 0.00 2.2   0.1 66.4   3.5 0.00 41.3   6.4 60.6   5.9 20.5   5.1
South Daggett Pass (Ridge) 9/2/26 1830 50.8   2.9 51   12 33.1   4.1 4.5   2.0 WNW | 286 16.8   1.6 W | 268 0.00 2.2   0.0 63.0   1.1 0.00 38.5   9.7 55.4   7.5 28.3   7.6
Palomino Valley 9/2/26 1830 67.4   4.3 26   10 31.5   7.8 11.1   8.0 WSW | 242 20.0   8.3 WSW | 238 0.00 6.6   0.1 75.9   3.4 0.00 49.3   4.0 69.2   10.1 33.4   9.2
East Cold Springs 9/2/26 1830 59.9   4.1 37   12 33.7   6.5 12.2   0.5 SW | 235 23.5   1.4 SW | 223 0.00 1.6   0.0 70.2   2.2 0.00 46.6   9.4 66.0   6.2 27.2   0.8
Peavine 9/2/26 1830 57.4 35 29.7 14.7 W | 271 29.9 W | 265 0.00 4.4 69.6 0.00 51.0 62.8 34.9
West Verdi Peak 9/2/26 1930 55.0   3.2 44   13 33.4   5.6 5.1   1.5 S | 179 14.8   2.7 SSE | 149 0.00 6.5   0.1 68.9   1.8 0.00 42.8   9.1 60.1   8.5 26.2   0.2
West Verdi 9/2/26 1830 60.5   3.7 37   11 34.0   5.3 7.5   1.1 SW | 218 20.5   2.8 SSW | 192 0.00 6.2   0.0 79.0   2.8 0.00 50.2   7.6 65.5   7.9 37.6   2.2
South Verdi 9/2/26 1830 59.5   3.2 38   13 33.7   7.3 22.2   0.7 SW | 216 32.5   0.6 SW | 215 0.00 10.4   0.3 72.7   4.5 0.00 49.1   8.1 63.9   6.2 44.7   5.7
Northwest Reno 9/2/26 1830 61.9   4.1 36   15 34.8   9.4 21.8   18.0 SW | 236 30.9   25.6 SW | 234 0.00 24.7   0.5 75.6   4.4 0.00 52.0   7.1 65.7   7.6 47.9   8.6
North Lawton 8/28/26 1620 63.8   17.1 74   52 55.4   16.5 1.5   11.6 ESE | 121 5.1   19.0 SE | 124 0.00 - 78.2   0.0 0.05 59.2   7.5 71.9   13.3 20.4   4.6
West Reno (Mogul) 9/2/26 1830 61.4   3.7 35   12 33.7   7.0 15.0   10.2 WSW | 249 27.2   15.3 WSW | 243 0.00 19.6   0.0 78.4   0.7 0.00 51.1   6.1 64.8   9.0 33.3   2.2
Caughlin (Hunter Lake Trail) 9/2/26 1830 62.9   2.9 33   11 33.6   7.5 3.7   14.4 W | 263 8.1   22.0 NW | 326 0.00 16.4   0.2 72.9   2.7 0.00 50.0   7.0 65.6   8.4 31.2   7.6
ArrowCreek 9/2/26 1830 63.3   3.6 30   9 31.7   5.2 7.9   2.2 SW | 224 18.1   0.5 WSW | 249 0.00 - 32.0   0.0 0.00 50.5   4.9 66.6   8.0 40.2   8.3
Tracy 9/2/26 1830 68.2   3.8 25   6 31.5   3.9 14.2   3.3 SW | 231 19.8   6.1 SW | 226 0.00 15.8   0.2 77.3   3.9 0.00 56.2   5.2 72.0   8.1 29.3   7.1
Virginia Highlands 9/2/26 1830 57.5   3.1 44   10 36.1   3.5 2.0   8.4 ENE | 65 5.7   14.5 N | 351 0.00 8.0   0.1 73.8   0.8 0.00 48.7   7.2 60.1   10.3 24.6   1.4
Virginia City 9/2/26 1830 57.8   2.1 42   7 34.5   2.8 6.4   9.0 W | 261 15.9   9.3 SW | 221 0.00 4.7   0.2 71.9   3.7 0.00 47.3   8.1 60.2   10.0 30.4   2.1
Six Mile Canyon 9/2/26 1830 66.8   4.3 27   7 31.4   3.8 14.8   2.6 W | 273 23.8   1.5 WSW | 247 0.00 12.1   0.5 75.3   5.4 0.00 54.3   7.3 70.1   10.6 25.7   3.1
Mt Rose Highway 9/2/26 1830 50.8   3.7 50   12 32.7   3.2 3.5   0.2 S | 183 13.3   5.5 SSW | 200 0.00 7.4   0.1 61.1   1.1 0.00 43.0   9.1 56.7   7.3 35.2   7.2
Pleasant Valley 9/2/26 1830 63.2   2.8 37   7 36.4   3.2 16.9   2.1 SW | 227 27.1   0.2 SW | 226 0.00 2.4   0.0 76.2   4.0 0.00 54.6   3.2 66.3   8.9 34.2   0.1
New Washoe City 9/2/26 1830 61.5   2.6 41   7 37.7   2.6 11.7   3.3 WSW | 239 18.4   5.8 WSW | 242 0.00 3.5   0.1 72.9   1.1 0.00 52.3   6.5 65.9   7.5 31.7   1.0
Franktown Creek 9/2/26 1830 60.7   2.9 44   10 39.0   3.5 6.1   2.4 S | 187 13.7   1.1 S | 183 0.00 7.0   0.0 71.5   1.2 0.00 53.7   2.6 65.7   7.8 29.3   2.1
Musgrove Creek 9/2/26 1830 58.3   2.6 47   8 38.2   2.6 5.3   2.9 NE | 54 18.4   8.6 NE | 45 0.00 10.3   0.0 60.5   0.4 0.00 49.9   5.3 63.4   7.4 21.6   0.7
East Carson 11/23/24 0110 28.6   28.4 - - 4.7   11.0 SW | 220 14.7   10.1 SW | 219 0.02 - 50.9   0.1 0.02 -25.9   79.1 42.9   14.6 16.0   10.7
Kings Canyon 9/2/26 1830 60.7   3.2 40   15 36.4   8.6 3.1   10.5 SSE | 160 11.0   14.2 SE | 146 0.00 4.1   0.0 69.6   2.1 0.00 51.1   10.0 65.7   7.8 28.1   3.6
Carson City (Voltaire Canyon) 9/2/26 1830 63.0   3.0 33   7 33.4   2.9 15.0   0.3 SSW | 212 24.2   1.1 SSW | 201 0.00 2.8   0.0 78.5   0.6 0.00 53.6   7.6 68.1   7.8 32.8   0.8
Jacks Valley 9/2/26 1830 62.2   2.7 35   7 34.0   3.4 12.2   0.5 WSW | 242 23.8   4.0 SSW | 210 0.00 4.6   0.1 80.0   4.1 0.00 52.3   5.6 67.3   7.4 36.0   8.7
Genoa 9/2/26 1830 63.6   2.9 35   8 35.4   3.8 2.2   0.5 SSE | 149 9.4   0.4 SE | 129 0.00 2.5   0.1 74.6   5.4 0.00 53.0   8.6 71.2   5.3 21.7   5.0
South Genoa (Walleys Hot Springs) 9/2/26 1830 65.1   3.1 33   7 35.2   3.6 10.8   0.6 WSW | 244 26.4   6.6 SW | 234 0.00 4.8   0.2 74.1   0.5 0.00 54.2   2.4 70.9   6.8 31.7   0.7
SW Gardnerville (HWY 88) 9/2/26 1830 65.8   2.2 29   7 32.4   5.5 14.5   0.7 S | 182 20.5   2.2 S | 190 0.00 2.8   0.0 69.0   1.5 0.00 51.7   7.9 70.3   5.5 30.3   1.6
Sheridan 9/2/26 1830 64.7   3.5 29   12 31.7   9.5 3.5   7.7 WNW | 300 8.1   16.4 WSW | 248 0.00 1.1   0.0 72.7   3.1 0.00 50.8   7.4 71.3   4.9 27.1   4.6
Ruhenstroth 9/2/26 1830 65.1   2.7 27   3 30.0   0.7 12.9   0.5 SSW | 203 25.2   1.4 SSW | 192 0.00 7.0   0.2 78.0   5.2 0.00 54.4   5.6 69.1   6.2 31.3   0.1
Double Spring 9/2/26 1830 60.9   3.7 29   5 28.8   1.7 9.2   1.4 W | 267 18.0   3.5 W | 265 0.00 25.4   0.3 74.5   4.5 0.00 38.9   12.0 65.0   6.5 30.9   7.2
North Topaz Lake 9/2/26 1830 63.4   4.1 30   11 31.1   8.1 7.4   3.2 WSW | 242 15.2   8.3 W | 262 0.00 7.8   0.1 80.1   4.6 0.00 52.8   8.2 69.1   6.5 28.0   0.8
Wild Oat Mountain 9/2/26 1830 62.2   3.6 30   10 30.6   6.9 20.3   2.3 WSW | 240 28.0   10.3 SW | 233 0.00 5.8   0.1 75.7   3.6 0.00 49.8   8.4 67.6   5.3 33.9   4.3
Smith Valley 9/2/26 1830 68.4   4.4 25   8 31.2   5.6 3.1   9.1 WNW | 288 10.3   11.5 W | 276 0.00 2.8   0.1 78.0   3.0 0.00 53.7   6.0 72.8   8.2 27.2   1.9
Pine Grove Mountain 9/2/26 1830 55.9   5.5 27   8 22.1   3.2 15.7   5.8 WSW | 252 26.0   6.7 WSW | 244 0.00 7.0   0.1 66.8   5.4 0.00 43.4   7.2 61.1   7.7 28.7   2.7
Paradise Hill 9/2/26 1830 64.6   12.5 31   13 33.4   2.7 12.5   2.9 WSW | 252 20.7   6.7 WSW | 247 0.00 10.0   0.2 74.5   6.8 0.00 54.1   1.2 67.6   12.9 39.9   12.9
Winnemucca 9/2/26 1830 65.5   10.7 28   9 31.3   0.8 8.6   0.4 SW | 216 15.2   2.0 SSW | 208 0.00 5.7   0.1 74.7   2.4 0.00 51.9   13.0 69.2   12.5 33.3   9.7
NE Elko 9/2/26 1830 66.9   12.6 20   9 24.1   4.9 10.3   3.5 WSW | 243 17.3   4.7 SW | 234 0.00 5.7   0.0 74.0   1.6 0.00 52.1   5.9 71.1   11.3 27.0   8.7
North Elko 9/2/26 1830 64.1   13.2 21   10 23.6   4.9 15.7   6.0 W | 261 21.1   7.9 W | 271 0.00 24.7   0.1 72.5   2.1 0.00 50.5   7.0 69.0   11.9 36.9   5.2
South Elko 9/2/26 1830 61.6   13.2 23   12 23.6   5.6 12.6   6.1 WNW | 287 20.4   9.3 WNW | 284 0.00 13.7   0.1 70.8   3.7 0.00 50.9   4.8 - 24.5   10.7
Lamoille 9/2/26 1830 63.8   11.1 21   7 23.4   0.1 6.9   4.3 W | 268 10.7   4.4 W | 262 0.00 6.4   0.1 68.1   1.8 0.00 51.6   0.1 70.0   6.7 28.0   6.6
Reid Gardner Sub 9/2/26 1830 94.5   1.5 7   4 20.5   12.7 16.9   3.6 SSW | 208 26.3   3.8 SSW | 198 0.00 24.5   2.3 89.3   2.4 0.00 73.9   2.0 97.9   1.4 32.8   2.2
Corn Creek 9/2/26 1830 90.8   3.7 7   5 17.5   10.4 5.5   14.2 NNW | 331 9.1   21.4 N | 6 0.00 3.2   0.0 93.1   0.3 0.00 68.7   3.2 94.2   2.4 25.5   14.5
Lucky Strike 9/2/26 1810 77.1   2.3 7   5 7.3   11.0 11.9   3.4 WSW | 241 18.0   4.2 SW | 222 0.00 3.2   0.1 88.7   0.2 0.00 61.6   3.2 82.0   2.4 28.1   5.7
Lower Angel Peak 9/2/26 1830 69.1   0.5 9   5 8.1   10.3 9.6   2.0 SE | 143 19.0   3.4 SE | 143 0.00 3.2   0.1 75.0   1.1 0.00 53.7   6.3 77.5   2.7 22.5   6.0
Angel Peak 9/2/26 1830 57.0   0.0 11   6 3.5   9.9 15.6   1.8 SW | 225 30.4   0.2 WSW | 239 0.00 2.6   0.1 72.8   2.6 0.00 50.9   0.4 66.7   5.3 45.2   7.9
Upper Kyle Canyon 9/2/26 1830 60.5   0.1 11   8 6.5   11.5 6.2   0.7 WNW | 296 13.8   4.2 WNW | 296 0.00 7.7   0.0 74.8   0.7 0.00 56.3   0.5 68.1   0.3 36.5   11.3
Mt Charleston 9/2/26 1830 61.5   0.3 12   7 8.2   10.6 7.2   3.8 WSW | 253 16.2   12.2 WNW | 286 0.00 13.3   0.1 68.8   0.5 0.00 56.0   1.4 67.8   0.2 31.9   1.6
Mid Kyle Canyon 9/2/26 1830 68.5   0.8 10   6 9.8   11.2 19.2   15.3 WSW | 244 30.2   18.0 WSW | 252 0.00 5.8   0.0 75.5   1.2 0.00 57.1   2.5 75.6   2.0 30.2   2.9
Blue Diamond 9/2/26 1830 84.6   1.2 8   7 18.3   15.2 10.0   1.0 W | 265 18.9   2.5 W | 263 0.00 1.3   0.0 90.1   1.6 0.00 67.0   4.5 87.8   0.6 28.6   0.1
Artesian Sub 9/2/26 1830 93.8   2.2 7   5 21.6   14.6 6.3   0.9 S | 177 20.1   8.2 S | 182 0.00 11.7   0.1 93.2   0.5 0.00 77.6   0.8 97.7   2.0 24.0   1.5
North Henderson 9/2/26 1830 94.7   2.2 7   5 22.8   14.2 12.6   5.1 SW | 226 20.9   6.2 SSW | 211 0.00 10.6   0.3 96.6   0.9 0.00 80.4   0.6 97.8   1.6 26.4   2.7
Sandy Valley 9/2/26 1830 87.1   1.6 12   6 27.7   11.5 9.2   1.2 SW | 215 12.9   3.0 SW | 217 0.00 8.0   0.3 93.4   2.5 0.00 69.8   3.5 89.4   1.5 24.1   0.6
Searchlight 9/2/26 1830 85.5   2.6 12   8 27.2   15.0 14.1   2.1 SSE | 166 20.1   4.5 SSE | 155 0.00 6.0   0.1 91.1   0.9 0.00 65.1   2.8 89.9   0.0 27.2   3.4
Laughlin 9/2/26 1830 100.6   2.1 10   8 34.5   16.3 10.1   4.3 S | 170 15.8   8.3 S | 189 0.00 4.5   0.0 100.8   1.1 0.00 80.5   5.5 103.3   1.1 23.8   6.7
31Mission Hills 9/2/26 1830 90.5   2.7 7   6 19.0   16.6 17.7   8.9 WSW | 242 24.0   6.5 SW | 235 0.00 7.1   0.4 95.8   1.9 0.00 74.8   2.0 94.6   1.3 33.2   10.7
32 Enterprise Sierra Cliffs 9/2/26 1830 85.9   1.8 7   6 15.7   14.7 12.9   0.1 SW | 220 20.7   0.9 SSW | 210 0.00 1.5   0.1 92.7   3.8 0.00 72.3   4.0 89.1   1.2 36.4   6.3
29 Calico Basin 9/2/26 1830 82.9   1.0 6   6 9.9   16.7 13.0   3.0 SSW | 211 20.0   3.9 SSW | 213 0.00 2.4   0.2 86.0   2.0 0.00 69.3   2.8 85.7   0.7 43.2   3.9
28 Indian Springs 9/2/26 1830 87.3   0.9 5   3 9.0   10.5 11.6   3.9 SW | 236 17.1   8.3 WSW | 240 0.00 4.6   0.1 88.4   2.1 0.00 62.7   6.7 90.8   1.0 34.4   2.6
30 Jean 9/2/26 1830 85.9   2.7 8   5 17.0   14.0 15.4   1.5 WSW | 245 24.6   4.8 WSW | 245 0.00 5.2   0.2 92.3   2.9 0.00 67.4   3.0 89.4   1.6 36.3   8.8
VC Highlands NW 9/2/26 1830 56.2   3.2 41   9 32.6   3.7 5.1   1.4 WNW | 283 18.4   2.7 WNW | 288 0.00 1.6   0.1 65.9   8.2 0.00 47.0   8.0 57.6   12.3 32.4   12.9
Glenbrook-Spooner Summit 9/2/26 1830 52.0   2.2 48   17 32.8   8.4 7.6   1.4 WSW | 254 19.1   4.0 WSW | 252 0.00 8.0   0.0 72.1   1.3 0.00 41.4   8.8 56.2   6.6 30.8   6.5
Hobo Hot Springs 9/2/26 1830 64.8   4.1 27   7 30.4   3.4 12.3   6.5 SW | 226 27.6   12.4 SSW | 207 0.00 1.0   0.1 70.0   4.5 0.00 48.6   8.0 70.2   7.5 34.2   9.2
Jack Valley Ranch 2 9/2/26 1830 61.3   2.5 32   6 31.2   3.1 8.9   1.2 W | 271 19.2   0.6 WNW | 285 0.00 2.1   0.0 74.0   3.2 0.00 51.6   8.8 67.1   8.3 35.3   0.2
Genoa North 2 9/2/26 1830 62.7   2.7 31   7 32.0   3.5 5.4   0.8 SSW | 192 23.2   8.0 S | 173 0.00 0.9   0.1 76.2   4.5 0.00 53.3   6.8 69.5   7.5 28.8   1.6
Mottsville 2 9/2/26 1830 64.3   3.1 28   6 30.7   3.7 5.7   0.4 WSW | 244 14.2   3.6 WSW | 253 0.00 1.3   0.1 72.3   2.6 0.00 52.8   4.2 70.3   6.7 36.9   14.8
Kingsbury Village 3 9/2/26 1830 49.2   2.6 49   12 30.8   4.8 3.7   1.7 NW | 317 18.0   10.2 NW | 316 0.00 3.2   0.0 65.5   1.2 0.00 39.1   6.2 54.7   8.7 19.4   1.1
Kingsbury-Benjamin Dr 2 9/2/26 1830 51.6   3.5 46   12 31.6   4.7 3.6   0.9 WSW | 256 12.7   3.2 SW | 225 0.00 3.1   0.2 70.6   4.3 0.00 40.5   8.4 57.4   7.4 23.2   4.6
Smith Valley-Wellington 9/2/26 1830 68.4   3.7 23   7 29.5   5.0 12.5   0.7 WSW | 247 26.1   3.7 WSW | 246 0.00 3.6   0.0 79.7   2.9 0.00 54.8   6.7 72.9   7.7 27.7   1.4
Sheridan South 2 9/2/26 1830 64.2   3.0 29   11 31.1   8.8 5.3   0.5 SSE | 147 12.3   1.1 ESE | 120 0.00 0.5   0.1 73.7   4.0 0.00 48.5   7.9 70.4   4.8 31.4   4.1
Silver Springs 9/2/26 1830 69.6   5.4 22   6 29.0   4.1 19.8   3.7 WSW | 244 28.6   5.1 WSW | 255 0.00 5.0   0.2 77.9   6.3 0.00 54.1   12.3 74.5   8.0 39.4   0.5
Fernley 9/2/26 1830 70.1   4.3 20   3 26.6   0.2 14.8   2.4 WNW | 294 23.0   5.7 NW | 315 0.00 3.2   0.1 77.8   9.0 0.00 53.1   8.1 73.9   8.5 29.6   2.6
Spanish Springs 9/2/26 1830 64.6   6.1 29   13 31.7   9.5 13.6   0.8 W | 268 22.2   1.7 W | 265 0.00 10.3   0.4 76.9   6.5 0.00 52.5   0.8 68.6   10.2 25.7   5.8
Suttcliffe South 2 9/2/26 1830 67.4   4.4 25   10 30.8   8.7 14.7   10.6 SW | 233 22.5   12.9 WSW | 238 0.00 4.3   0.3 77.1   8.0 0.00 47.7   11.3 71.6   9.5 31.0   7.0
Lemmon Valley North 9/2/26 1830 61.6   4.2 33   13 31.9   8.9 13.7   2.3 S | 190 21.6   11.3 SSW | 192 0.00 2.0   0.1 70.7   3.1 0.00 45.8   15.0 66.0   8.1 33.9   0.8
Lemmon Valley NW 3 9/2/26 1830 61.7   5.3 32   12 31.3   6.5 10.5   2.6 W | 263 18.0   3.3 WSW | 251 0.00 1.3   0.1 79.1   5.6 0.00 49.8   10.9 67.6   7.4 26.1   7.2
VC Highlands North 9/2/26 1830 57.6   3.6 40   10 33.3   4.1 2.5   6.2 W | 264 7.6   10.3 W | 276 0.00 4.7   0.7 71.4   15.1 0.00 42.9   13.6 59.5   11.4 26.8   1.4
Upper Voltaire Cyn 9/2/26 1830 59.0   2.7 35   9 31.3   4.8 12.3   0.6 SSW | 206 21.9   5.1 SSW | 196 0.00 1.1   0.1 70.8   5.6 0.00 49.4   7.7 64.2   7.0 33.3   0.5
Yerington NW 9/2/26 1830 69.5   3.9 22   1 28.6   1.6 15.7   0.2 W | 271 23.4   3.8 W | 269 0.00 7.2   0.3 75.1   5.0 0.00 55.0   2.5 71.9   7.5 32.0   2.6
Spanish Springs SW 9/2/26 1830 63.5   6.0 29   13 31.0   9.4 14.8   1.7 WSW | 258 23.5   0.4 SW | 227 0.00 1.5   0.2 78.2   6.6 0.00 52.8   2.8 68.4   9.1 28.2   3.2
Cosgrave 2 8/27/26 0750 62.9   4.1 34   3 33.8   1.4 2.6   0.5 WSW | 246 4.1   1.0 W | 267 0.00 3.8   0.1 77.4   2.9 0.00 62.7   3.3 77.4   3.5 11.2   3.9
Winnemucca-Grass Valley 2 9/2/26 1830 65.6   12.0 25   10 29.2   2.9 3.7   4.5 W | 269 7.2   5.8 WSW | 240 0.00 7.9   0.3 70.5   6.2 0.00 43.4   8.4 67.9   12.6 28.3   7.4
Winnemucca-Dutch Flat Rd 9/2/26 1830 64.5   11.4 27   11 29.9   2.6 8.6   4.0 SW | 234 15.0   4.1 SW | 230 0.00 6.2   0.1 75.0   3.1 0.00 52.4   7.6 68.1   12.3 30.8   8.9
Paradise Valley 2 9/2/26 1830 62.8   12.4 28   10 29.1   0.4 8.3   5.6 SW | 226 19.4   15.2 SW | 233 0.00 12.7   0.3 74.6   4.0 0.00 51.6   1.3 68.7   12.3 26.0   5.6
Golconda 2 9/2/26 1830 65.6   13.8 24   12 27.6   5.1 12.6   3.4 WNW | 284 19.2   6.1 WNW | 290 0.00 2.0   0.2 78.8   9.8 0.00 51.0   9.4 68.2   14.9 37.3   11.8
Battle Mountain - South 9/2/26 1830 67.7   12.3 20   6 24.9   1.3 7.0   1.8 W | 273 12.0   3.4 W | 272 0.00 9.2   0.0 74.9   3.4 0.00 42.4   15.5 70.3   13.4 27.6   0.7
Geiger Summit 9/2/26 1830 54.5   3.1 100   0 54.5   3.1 3.7   2.0 WSW | 239 9.1   10.2 S | 190 0.00 6.3   0.3 64.9   7.0 0.00 42.7   10.2 57.6   9.7 20.5   6.1
Combs Canyon 3 9/2/26 1830 63.2   3.0 35   15 35.0   10.8 5.5   9.2 S | 190 14.4   10.9 SSW | 210 0.00 1.0   0.1 76.9   4.1 0.00 52.2   6.9 67.9   8.0 30.7   1.1
Clear Creek 9/2/26 1830 59.8   2.4 34   8 31.5   4.8 8.9   1.2 SW | 214 17.5   2.0 SW | 225 0.00 3.4   0.1 70.9   2.5 0.00 50.0   9.4 64.5   6.7 38.8   5.2
Eastlake 2 9/2/26 1830 63.0   2.5 38   15 36.8   10.6 6.6   5.8 SE | 131 15.6   7.1 SE | 139 0.00 3.4   0.1 71.8   2.5 0.00 52.5   5.4 66.8   7.5 28.6   1.5
Lovelock-Colado 2 9/2/26 1830 68.4   11.0 25   10 31.4   3.6 3.3   6.9 SW | 214 5.1   11.7 SSW | 213 0.00 - 76.1   5.5 0.00 45.6   8.7 71.5   10.9 28.9   7.1
Spanish Springs NW 9/2/26 1830 64.7   6.2 28   12 30.7   9.2 9.0   2.8 WSW | 243 17.5   5.0 SW | 226 0.00 12.6   0.4 71.8   4.1 0.00 53.2   2.7 70.1   7.9 23.8   7.0
Battle Mountain NW 9/2/26 1830 66.9   12.0 23   9 28.4   1.3 10.1   0.2 WNW | 284 15.3   2.2 WNW | 292 0.00 8.9   0.3 76.7   4.6 0.00 48.8   12.2 69.2   14.5 28.6   0.4
Austin 2 9/2/26 1730 61.9   9.7 19   9 19.5   6.0 11.8   4.2 NW | 315 17.3   5.7 NW | 304 0.00 2.5   0.1 74.0   6.6 0.00 37.3   11.9 68.5   5.6 26.4   7.0
Elko-Osino 9/2/26 1830 67.3   12.4 17   8 21.1   5.7 9.6   1.2 W | 266 14.5   2.0 WNW | 289 0.00 1.5   0.2 77.8   3.0 0.00 51.9   4.6 71.3   11.2 28.1   5.5
Elko-Bill Fishpond 2 9/2/26 1830 65.2   11.7 18   7 21.3   1.1 7.4   2.4 W | 269 10.9   1.9 W | 259 0.00 3.5   0.0 69.4   1.9 0.00 52.2   5.8 69.8   10.0 20.4   8.9
Spring Creek SE 2 9/2/26 1830 65.3   12.2 18   8 20.6   5.2 6.1   4.2 WNW | 294 11.2   6.7 WNW | 292 0.00 0.3   0.0 69.5   2.4 0.00 48.2   0.6 70.7   9.3 29.1   7.0
Spring Creek NW 9/2/26 1830 64.4   11.9 19   10 21.7   6.8 9.5   3.2 W | 277 16.6   5.8 W | 272 0.00 2.2   0.0 72.0   1.5 0.00 52.9   0.9 70.2   9.9 22.7   14.4
Elko-Moleen 9/2/26 1830 66.7   11.9 19   9 22.6   5.8 8.6   1.6 WNW | 284 14.0   1.1 WNW | 289 0.00 6.3   0.1 77.4   3.6 0.00 51.8   4.0 71.4   12.3 26.4   11.2
Elko-West 9/2/26 1830 66.9   9.8 18   7 22.6   3.5 11.6   3.9 W | 271 19.6   8.4 W | 268 0.00 33.2   0.4 67.0   1.2 0.00 51.5   0.9 71.4   11.5 24.1   10.9
Elko-Adobe Creek 9/2/26 1830 58.9   13.4 22   12 20.6   6.0 9.0   0.2 W | 260 14.9   0.2 W | 262 0.00 18.5   0.2 68.6   1.5 0.00 45.6   13.4 62.8   13.1 31.2   5.0
Tuscarora SW 9/2/26 1830 61.1   13.8 21   7 20.6   2.1 9.9   0.6 WSW | 250 17.5   0.4 WSW | 244 0.00 6.9   0.2 72.5   6.7 0.00 42.8   31.5 64.5   15.0 28.2   7.5
Elko-Monument Peak 9/2/26 1830 61.1   13.0 21   10 21.3   4.9 8.7   1.0 W | 268 14.8   1.2 W | 261 0.00 3.7   0.0 70.6   3.9 0.00 37.3   31.1 65.8   12.3 27.0   6.7
Wild Horse 9/2/26 1830 59.0 24 22.1 11.6 WSW | 248 19.0 WSW | 246 0.00 4.6 66.8 0.00 46.8 62.1 34.3
Max     100.6 100 54.5 22.2 - 32.5 - 0.00 43.1 100.8 0.00 80.5 103.3 47.9
Avg     65.2 29 28.7 9.7 - 17.9 - 0.00 7.0 73.7 - - - -
Min     49.2 5 3.5 0.4 - 1.7 - 0.00 0.0 0.0 0.00 37.3 53.7 1.7